Time;durP1;ratioP1;P1;durP2;ratioP2;P2;SDS_P1;SDS_P2;PMS_P1;PMS_P2;Temp;Humidity;BMP_temperature;BMP_pressure;BME280_temperature;BME280_humidity;BME280_pressure;Samples;Min_cycle;Max_cycle;Signal;HPM_P1;HPM_P2
2021/03/07 00:01:49;;;;;;;7.67;6.97;;;3.30;28.60;;;;;;10504067;28;21184;-73
2021/03/07 00:06:53;;;;;;;7.63;6.77;;;3.10;28.50;;;;;;10508494;28;20228;-73
2021/03/07 00:11:55;;;;;;;9.10;6.57;;;3.10;28.50;;;;;;10509910;28;20233;-73
2021/03/07 00:16:57;;;;;;;7.23;6.30;;;3.00;28.50;;;;;;10502413;28;20227;-73
2021/03/07 00:22:00;;;;;;;7.77;6.27;;;3.00;28.60;;;;;;10511616;28;20231;-73
2021/03/07 00:27:03;;;;;;;7.03;5.70;;;2.90;28.50;;;;;;10505627;28;20252;-74
2021/03/07 00:32:06;;;;;;;6.70;6.00;;;2.90;29.20;;;;;;10501195;28;20478;-73
2021/03/07 00:37:09;;;;;;;7.63;6.87;;;2.80;29.10;;;;;;10503656;28;20220;-71
2021/03/07 00:42:11;;;;;;;7.47;6.27;;;2.80;28.60;;;;;;10502861;28;20688;-71
2021/03/07 00:47:14;;;;;;;9.57;7.53;;;2.70;28.70;;;;;;10504579;28;20228;-71
2021/03/07 00:52:18;;;;;;;8.67;7.70;;;2.70;28.80;;;;;;10502327;28;20490;-71
2021/03/07 00:57:20;;;;;;;7.10;6.03;;;2.50;28.70;;;;;;10502749;28;20275;-72
2021/03/07 01:02:22;;;;;;;7.17;6.27;;;2.50;28.70;;;;;;10501928;28;20228;-72
2021/03/07 01:07:25;;;;;;;7.43;6.73;;;2.60;28.80;;;;;;10502803;28;20239;-71
2021/03/07 01:12:28;;;;;;;7.37;6.57;;;2.40;28.70;;;;;;10500621;28;20231;-71
2021/03/07 01:17:30;;;;;;;7.43;6.37;;;2.40;28.80;;;;;;10503944;28;20226;-72
2021/03/07 01:22:33;;;;;;;8.10;6.50;;;2.40;28.80;;;;;;10501895;28;20220;-71
2021/03/07 01:27:36;;;;;;;5.90;5.30;;;2.40;28.80;;;;;;10502202;28;20697;-71
2021/03/07 01:32:38;;;;;;;7.57;6.83;;;2.30;28.90;;;;;;10502392;28;20224;-71
2021/03/07 01:37:41;;;;;;;6.93;6.13;;;2.20;28.90;;;;;;10501481;28;20238;-71
2021/03/07 01:42:44;;;;;;;6.30;5.70;;;2.20;28.90;;;;;;10502307;28;20223;-71
2021/03/07 01:47:49;;;;;;;7.07;6.23;;;2.10;28.80;;;;;;10501241;28;20234;-71
2021/03/07 01:52:53;;;;;;;7.17;6.27;;;2.10;28.80;;;;;;10501370;28;20346;-71
2021/03/07 01:57:59;;;;;;;8.00;6.87;;;2.00;28.80;;;;;;10501063;28;20688;-71
2021/03/07 02:03:02;;;;;;;6.13;5.17;;;2.00;28.80;;;;;;10498593;28;20314;-71
2021/03/07 02:08:06;;;;;;;6.57;5.73;;;1.90;28.70;;;;;;10502533;28;20228;-71
2021/03/07 02:13:11;;;;;;;6.10;5.43;;;1.80;28.70;;;;;;10499782;28;20235;-71
2021/03/07 02:18:14;;;;;;;7.27;5.73;;;1.80;28.90;;;;;;10500511;28;20227;-71
2021/03/07 02:23:21;;;;;;;6.33;5.47;;;1.80;28.80;;;;;;10500914;28;20225;-71
2021/03/07 02:28:25;;;;;;;6.97;5.57;;;1.60;28.90;;;;;;10502476;28;20600;-71
2021/03/07 02:33:33;;;;;;;5.50;4.93;;;1.60;29.00;;;;;;10500455;28;20229;-71
2021/03/07 02:38:39;;;;;;;7.63;5.43;;;1.50;29.10;;;;;;10499653;28;20228;-71
2021/03/07 02:43:45;;;;;;;5.83;5.03;;;1.50;29.10;;;;;;10498833;28;20227;-71
2021/03/07 02:48:51;;;;;;;7.60;5.27;;;1.50;29.00;;;;;;10496522;28;20239;-71
2021/03/07 02:53:57;;;;;;;6.93;5.17;;;1.50;28.90;;;;;;10499127;28;20281;-71
2021/03/07 02:59:04;;;;;;;5.93;4.73;;;1.40;29.00;;;;;;10498902;28;20939;-71
2021/03/07 03:04:07;;;;;;;6.13;5.03;;;1.30;29.00;;;;;;10497722;28;20222;-73
2021/03/07 03:09:12;;;;;;;7.83;5.70;;;1.30;29.00;;;;;;10499706;28;20223;-73
2021/03/07 03:14:16;;;;;;;6.30;5.23;;;1.20;29.10;;;;;;10499968;28;20223;-73
2021/03/07 03:19:20;;;;;;;6.17;5.57;;;1.20;29.30;;;;;;10499682;28;20573;-73
2021/03/07 03:24:23;;;;;;;7.17;5.57;;;1.10;29.20;;;;;;10498358;28;20597;-73
2021/03/07 03:29:26;;;;;;;7.30;5.07;;;1.10;29.30;;;;;;10496670;28;20228;-73
2021/03/07 03:34:28;;;;;;;7.37;6.20;;;1.20;29.40;;;;;;10498600;28;20740;-75
2021/03/07 03:39:31;;;;;;;7.93;5.33;;;1.10;29.30;;;;;;10496348;28;20703;-73
2021/03/07 03:44:38;;;;;;;6.90;5.93;;;1.10;29.30;;;;;;10499337;28;20726;-73
2021/03/07 03:49:48;;;;;;;6.53;5.93;;;1.10;29.40;;;;;;10504253;28;20224;-73
2021/03/07 03:54:57;;;;;;;8.93;6.90;;;1.00;29.40;;;;;;10505618;28;20250;-73
2021/03/07 04:00:04;;;;;;;6.40;5.57;;;1.00;29.40;;;;;;10504699;28;20236;-73
2021/03/07 04:05:09;;;;;;;7.00;6.30;;;1.00;29.30;;;;;;10504159;28;20699;-73
2021/03/07 04:10:15;;;;;;;6.90;5.90;;;0.90;29.30;;;;;;10504118;28;20235;-73
2021/03/07 04:15:20;;;;;;;6.97;5.77;;;0.90;29.20;;;;;;10505627;28;20319;-73
2021/03/07 04:20:25;;;;;;;8.13;6.10;;;0.80;29.30;;;;;;10503805;28;20224;-73
2021/03/07 04:25:27;;;;;;;6.67;5.53;;;0.70;29.20;;;;;;10503424;28;20221;-73
2021/03/07 04:30:31;;;;;;;7.50;5.93;;;0.60;29.30;;;;;;10502035;28;20220;-73
2021/03/07 04:35:34;;;;;;;7.83;5.60;;;0.40;29.40;;;;;;10503779;28;20220;-73
2021/03/07 04:40:38;;;;;;;6.33;5.20;;;0.40;29.60;;;;;;10502594;28;20906;-73
2021/03/07 04:45:41;;;;;;;6.57;5.87;;;0.30;29.60;;;;;;10504511;28;20742;-73
2021/03/07 04:50:43;;;;;;;7.37;5.60;;;0.30;29.70;;;;;;10505063;28;20539;-73
2021/03/07 04:55:45;;;;;;;6.47;5.80;;;0.30;29.60;;;;;;10503246;28;20230;-76
2021/03/07 05:00:48;;;;;;;6.33;5.23;;;0.30;29.70;;;;;;10502591;28;20228;-73
2021/03/07 05:05:51;;;;;;;5.93;5.07;;;0.30;29.70;;;;;;10500655;28;20734;-73
2021/03/07 05:10:54;;;;;;;5.90;5.13;;;0.20;29.60;;;;;;10501123;28;20623;-73
2021/03/07 05:15:57;;;;;;;6.40;5.10;;;0.20;29.80;;;;;;10503672;28;20231;-73
2021/03/07 05:21:01;;;;;;;4.87;4.23;;;0.20;29.70;;;;;;10501276;28;20711;-73
2021/03/07 05:26:04;;;;;;;5.00;4.37;;;0.20;29.70;;;;;;10501779;28;20239;-73
2021/03/07 05:31:07;;;;;;;5.77;5.13;;;0.20;29.80;;;;;;10503349;28;20306;-73
2021/03/07 05:36:09;;;;;;;6.83;5.30;;;0.20;30.40;;;;;;10502984;28;20228;-74
2021/03/07 05:41:12;;;;;;;9.13;6.70;;;0.20;29.70;;;;;;10501617;28;20228;-73
2021/03/07 05:46:16;;;;;;;8.47;6.37;;;0.20;29.60;;;;;;10502952;28;20220;-73
2021/03/07 05:51:19;;;;;;;7.57;5.60;;;0.20;29.70;;;;;;10499836;28;20228;-73
2021/03/07 05:56:21;;;;;;;7.00;5.87;;;0.20;29.70;;;;;;10502122;28;20706;-73
2021/03/07 06:01:24;;;;;;;6.00;5.40;;;0.20;29.70;;;;;;10498197;28;20293;-73
2021/03/07 06:06:29;;;;;;;5.97;4.97;;;0.20;29.80;;;;;;10500864;28;20292;-73
2021/03/07 06:11:32;;;;;;;6.90;5.53;;;0.20;29.90;;;;;;10499623;28;20452;-73
2021/03/07 06:16:35;;;;;;;6.27;4.93;;;0.20;29.80;;;;;;10501074;28;20232;-73
2021/03/07 06:21:38;;;;;;;7.03;5.27;;;0.10;30.40;;;;;;10500072;28;20236;-72
2021/03/07 06:26:40;;;;;;;6.70;5.33;;;0.10;29.90;;;;;;10499870;28;20302;-73
2021/03/07 06:31:43;;;;;;;5.53;5.00;;;0.10;30.00;;;;;;10498403;28;20227;-73
2021/03/07 06:36:45;;;;;;;7.07;5.33;;;0.10;30.20;;;;;;10500001;28;20230;-73
2021/03/07 06:41:47;;;;;;;6.87;5.70;;;0.10;30.30;;;;;;10465762;22;20221;-73
2021/03/07 06:46:50;;;;;;;7.00;6.10;;;0.10;30.40;;;;;;10433866;28;20225;-73
2021/03/07 06:51:59;;;;;;;7.87;5.33;;;0.20;30.60;;;;;;10436723;28;20236;-73
2021/03/07 06:57:01;;;;;;;5.90;4.77;;;0.20;30.80;;;;;;10433246;28;20225;-76
2021/03/07 07:02:12;;;;;;;6.80;4.80;;;0.30;30.90;;;;;;10434256;28;20719;-76
2021/03/07 07:07:16;;;;;;;9.20;6.53;;;0.40;31.60;;;;;;10434515;28;20224;-76
2021/03/07 07:12:20;;;;;;;13.77;10.47;;;0.50;31.30;;;;;;10435362;28;20231;-76
2021/03/07 07:17:23;;;;;;;16.90;12.60;;;0.50;31.30;;;;;;10432630;28;20699;-76
2021/03/07 07:22:26;;;;;;;11.73;10.37;;;0.60;31.40;;;;;;10436292;28;20225;-76
2021/03/07 07:27:28;;;;;;;13.97;11.37;;;0.60;31.20;;;;;;10440270;28;20225;-76
2021/03/07 07:32:35;;;;;;;13.03;10.73;;;0.70;31.30;;;;;;10441261;28;20233;-76
2021/03/07 07:37:46;;;;;;;13.67;11.20;;;0.80;31.80;;;;;;10442485;28;20278;-76
2021/03/07 07:42:57;;;;;;;11.80;9.43;;;1.00;32.00;;;;;;10443745;28;20235;-76
2021/03/07 07:48:00;;;;;;;10.17;8.33;;;1.00;32.20;;;;;;10442352;28;20233;-76
2021/03/07 07:53:04;;;;;;;8.90;6.60;;;1.10;31.90;;;;;;10443227;28;20221;-77
2021/03/07 07:58:06;;;;;;;6.90;5.70;;;1.30;32.10;;;;;;10443403;28;20227;-77
2021/03/07 08:03:30;;;;;;;6.97;5.90;;;1.40;32.00;;;;;;10449196;28;20624;-77
2021/03/07 08:08:35;;;;;;;5.03;4.53;;;1.60;32.80;;;;;;10452907;28;20224;-77
2021/03/07 08:13:53;;;;;;;7.13;5.37;;;1.80;32.30;;;;;;10453131;28;20221;-77
2021/03/07 08:18:56;;;;;;;8.03;5.63;;;2.10;33.00;;;;;;10455304;28;20235;-77
2021/03/07 08:24:04;;;;;;;7.20;5.83;;;2.40;32.70;;;;;;10450843;28;20728;-77
2021/03/07 08:29:43;;;;;;;6.67;5.97;;;2.80;33.10;;;;;;10446080;28;20317;-77
2021/03/07 08:34:47;;;;;;;6.67;5.60;;;3.10;33.30;;;;;;10441094;28;20229;-77
2021/03/07 08:40:22;;;;;;;6.43;5.83;;;3.40;32.90;;;;;;10452858;28;20827;-77
2021/03/07 08:45:26;;;;;;;6.17;5.57;;;3.80;33.30;;;;;;10449724;28;20756;-77
2021/03/07 08:50:29;;;;;;;6.23;5.67;;;4.10;32.80;;;;;;10438636;28;20646;-77
2021/03/07 08:55:31;;;;;;;6.90;6.10;;;4.40;32.60;;;;;;10448219;28;20736;-77
2021/03/07 09:00:34;;;;;;;7.43;6.53;;;4.70;32.70;;;;;;10445414;28;21015;-77
2021/03/07 09:05:38;;;;;;;6.50;5.90;;;5.00;32.70;;;;;;10447873;28;20228;-77
2021/03/07 09:10:44;;;;;;;6.80;6.20;;;5.30;32.90;;;;;;10443480;28;20298;-77
2021/03/07 09:15:51;;;;;;;8.97;6.67;;;5.50;32.80;;;;;;10448366;28;20221;-77
2021/03/07 09:20:56;;;;;;;7.87;7.07;;;5.80;32.80;;;;;;10447715;28;20239;-77
2021/03/07 09:25:59;;;;;;;7.60;6.90;;;6.10;32.50;;;;;;10447043;28;20602;-78
2021/03/07 09:31:04;;;;;;;8.83;7.70;;;6.40;32.60;;;;;;10444197;28;20229;-75
2021/03/07 09:36:10;;;;;;;8.87;8.07;;;6.60;32.70;;;;;;10434717;28;20319;-77
2021/03/07 09:41:13;;;;;;;8.63;7.83;;;6.90;32.60;;;;;;10435351;28;20662;-77
2021/03/07 09:46:17;;;;;;;8.60;7.70;;;7.20;32.50;;;;;;10447377;28;20575;-80
2021/03/07 09:51:21;;;;;;;8.83;8.03;;;7.40;32.50;;;;;;10436704;28;20285;-79
2021/03/07 09:56:34;;;;;;;9.47;8.57;;;7.60;32.00;;;;;;10449289;28;20685;-78
2021/03/07 10:01:45;;;;;;;10.03;9.13;;;7.90;32.10;;;;;;10438608;28;20596;-78
2021/03/07 10:06:48;;;;;;;9.77;8.77;;;8.10;32.10;;;;;;10440755;28;20239;-79
2021/03/07 10:12:00;;;;;;;13.77;12.30;;;8.30;31.80;;;;;;10443357;28;20587;-80
2021/03/07 10:17:03;;;;;;;10.47;9.37;;;8.40;31.50;;;;;;10440056;28;20288;-79
2021/03/07 10:22:06;;;;;;;9.87;8.97;;;8.60;31.80;;;;;;10438078;28;20229;-79
2021/03/07 10:27:10;;;;;;;9.70;8.70;;;8.80;31.70;;;;;;10442222;28;20319;-79
2021/03/07 10:32:18;;;;;;;11.00;10.00;;;8.90;31.60;;;;;;10438684;28;20237;-79
2021/03/07 10:37:41;;;;;;;10.03;9.03;;;9.10;31.40;;;;;;10422233;28;20225;-80
2021/03/07 10:42:45;;;;;;;9.67;8.77;;;9.10;30.90;;;;;;10429367;28;20315;-80
2021/03/07 10:48:04;;;;;;;10.23;9.33;;;9.20;30.90;;;;;;10422213;28;20317;-80
2021/03/07 10:53:08;;;;;;;10.47;9.47;;;9.30;31.00;;;;;;10409007;28;20221;-80
2021/03/07 10:58:10;;;;;;;9.93;8.93;;;9.40;31.40;;;;;;10413273;28;20256;-80
2021/03/07 11:03:12;;;;;;;10.17;9.07;;;9.60;31.50;;;;;;10417507;28;20670;-80
2021/03/07 11:08:16;;;;;;;9.93;9.03;;;9.80;31.30;;;;;;10416309;28;20234;-80
2021/03/07 11:13:18;;;;;;;10.13;9.23;;;10.00;30.20;;;;;;10421706;28;20715;-81
2021/03/07 11:18:21;;;;;;;10.33;9.33;;;10.20;30.00;;;;;;10453099;28;20221;-81
2021/03/07 11:23:24;;;;;;;9.30;8.40;;;10.40;30.00;;;;;;10454875;28;20288;-79
2021/03/07 11:28:27;;;;;;;10.67;9.67;;;10.50;30.70;;;;;;10448435;28;20225;-80
2021/03/07 11:33:29;;;;;;;9.30;8.50;;;10.70;30.00;;;;;;10453523;28;20237;-80
2021/03/07 11:38:32;;;;;;;9.70;8.70;;;10.80;29.80;;;;;;10454462;28;20588;-80
2021/03/07 11:43:35;;;;;;;9.20;8.40;;;10.90;29.90;;;;;;10446489;28;20229;-77
2021/03/07 11:48:37;;;;;;;9.87;8.97;;;11.00;29.60;;;;;;10447465;28;20255;-77
2021/03/07 11:53:42;;;;;;;9.73;8.83;;;11.10;29.50;;;;;;10443931;28;20225;-77
2021/03/07 11:58:45;;;;;;;10.90;9.90;;;11.10;29.50;;;;;;10445830;28;20255;-76
2021/03/07 12:03:47;;;;;;;10.23;9.33;;;11.20;29.10;;;;;;10440832;28;20668;-77
2021/03/07 12:08:50;;;;;;;10.70;9.70;;;11.20;29.10;;;;;;10443653;28;20240;-77
2021/03/07 12:13:52;;;;;;;10.00;9.00;;;11.20;29.10;;;;;;10444521;28;20338;-77
2021/03/07 12:18:54;;;;;;;10.60;9.60;;;11.20;29.10;;;;;;10443901;28;20225;-77
2021/03/07 12:23:58;;;;;;;11.60;10.50;;;11.20;29.10;;;;;;10438386;28;20305;-77
2021/03/07 12:29:00;;;;;;;10.97;9.97;;;11.20;29.20;;;;;;10438618;28;20239;-77
2021/03/07 12:34:03;;;;;;;12.40;11.23;;;11.20;29.10;;;;;;10433362;28;20233;-75
2021/03/07 12:39:06;;;;;;;11.97;10.87;;;11.20;29.10;;;;;;10441991;28;20236;-76
2021/03/07 12:44:09;;;;;;;10.70;9.70;;;11.10;29.10;;;;;;10433692;28;20225;-77
2021/03/07 12:49:11;;;;;;;11.03;9.87;;;11.10;29.10;;;;;;10440823;28;20271;-75
2021/03/07 12:54:15;;;;;;;13.07;11.67;;;11.10;29.10;;;;;;10441647;28;20671;-76
2021/03/07 12:59:17;;;;;;;11.80;10.70;;;11.10;29.10;;;;;;10434433;28;20233;-77
2021/03/07 13:04:20;;;;;;;11.47;10.33;;;11.10;29.10;;;;;;10437765;28;20229;-78
2021/03/07 13:09:23;;;;;;;12.53;11.37;;;11.20;29.10;;;;;;10439391;28;20243;-76
2021/03/07 13:14:25;;;;;;;12.80;11.60;;;11.30;29.20;;;;;;10440183;28;20236;-77
2021/03/07 13:19:28;;;;;;;12.43;11.33;;;11.30;29.20;;;;;;10438690;28;20762;-78
2021/03/07 13:24:31;;;;;;;12.53;11.27;;;11.30;29.20;;;;;;10439838;28;20233;-76
2021/03/07 13:29:33;;;;;;;13.33;12.13;;;11.30;29.20;;;;;;10442097;28;20235;-76
2021/03/07 13:34:35;;;;;;;13.70;12.40;;;11.30;29.20;;;;;;10442356;28;20230;-76
2021/03/07 13:39:39;;;;;;;13.63;12.33;;;11.30;29.20;;;;;;10435953;28;20259;-76
2021/03/07 13:44:41;;;;;;;12.67;11.47;;;11.30;29.20;;;;;;10437764;28;20225;-76
2021/03/07 13:49:43;;;;;;;12.73;11.50;;;11.30;29.20;;;;;;10441509;28;20229;-76
2021/03/07 13:54:47;;;;;;;14.00;12.63;;;11.40;29.30;;;;;;10437755;28;20356;-76
2021/03/07 13:59:49;;;;;;;12.83;11.63;;;11.40;29.20;;;;;;10438075;28;20708;-76
2021/03/07 14:04:51;;;;;;;13.83;12.47;;;11.40;29.30;;;;;;10438726;28;20894;-75
2021/03/07 14:09:54;;;;;;;14.30;12.80;;;11.50;29.40;;;;;;10437192;28;20229;-75
2021/03/07 14:14:57;;;;;;;13.27;11.97;;;11.50;29.40;;;;;;10445975;28;20324;-75
2021/03/07 14:19:59;;;;;;;13.43;12.10;;;11.50;29.40;;;;;;10446166;28;20232;-75
2021/03/07 14:25:03;;;;;;;13.43;12.13;;;11.50;29.40;;;;;;10445303;28;20308;-75
2021/03/07 14:30:09;;;;;;;14.47;12.97;;;11.60;29.40;;;;;;10445143;28;20323;-75
2021/03/07 14:35:13;;;;;;;13.83;12.43;;;11.60;29.70;;;;;;10446691;28;20697;-74
2021/03/07 14:40:16;;;;;;;13.53;12.13;;;11.60;29.40;;;;;;10445896;28;20233;-74
2021/03/07 14:45:20;;;;;;;12.70;11.40;;;11.60;29.30;;;;;;10444116;28;20221;-74
2021/03/07 14:50:23;;;;;;;13.63;12.33;;;11.60;29.40;;;;;;10444000;28;20230;-75
2021/03/07 14:55:26;;;;;;;12.33;10.70;;;11.70;29.30;;;;;;10447754;28;20403;-74
2021/03/07 15:00:28;;;;;;;13.07;11.87;;;11.60;30.00;;;;;;10444048;28;20232;-75
2021/03/07 15:05:30;;;;;;;12.53;11.33;;;11.60;29.40;;;;;;10446297;28;20231;-75
2021/03/07 15:10:33;;;;;;;13.97;12.57;;;11.60;29.40;;;;;;10436796;28;20234;-75
2021/03/07 15:15:36;;;;;;;12.93;11.73;;;11.60;29.20;;;;;;10442181;28;20226;-75
2021/03/07 15:20:38;;;;;;;14.70;13.03;;;11.60;29.40;;;;;;10439851;28;20225;-75
2021/03/07 15:25:41;;;;;;;13.43;12.13;;;11.60;29.10;;;;;;10445435;28;20221;-74
2021/03/07 15:30:43;;;;;;;12.90;11.60;;;11.60;29.40;;;;;;10438066;28;20237;-74
2021/03/07 15:35:45;;;;;;;12.53;11.37;;;11.60;29.60;;;;;;10437418;28;20223;-75
2021/03/07 15:40:48;;;;;;;12.80;11.60;;;11.60;29.40;;;;;;10438389;28;20225;-74
2021/03/07 15:45:51;;;;;;;13.83;11.90;;;11.60;29.40;;;;;;10445879;28;20221;-74
2021/03/07 15:50:54;;;;;;;13.43;12.13;;;11.80;29.50;;;;;;10447781;28;20225;-74
2021/03/07 15:55:57;;;;;;;13.07;11.80;;;11.80;29.50;;;;;;10451435;28;20225;-74
2021/03/07 16:01:00;;;;;;;13.60;12.30;;;11.80;29.50;;;;;;10448262;28;20236;-74
2021/03/07 16:06:02;;;;;;;13.20;12.00;;;11.80;29.50;;;;;;10449086;28;20225;-74
2021/03/07 16:11:06;;;;;;;14.80;13.40;;;11.90;29.60;;;;;;10449408;28;20719;-75
2021/03/07 16:16:11;;;;;;;14.27;12.87;;;11.80;29.50;;;;;;10453245;28;20256;-76
2021/03/07 16:21:13;;;;;;;13.33;12.03;;;11.90;29.60;;;;;;10448633;28;20812;-76
2021/03/07 16:26:16;;;;;;;13.70;12.13;;;11.80;29.50;;;;;;10451977;28;20224;-76
2021/03/07 16:31:19;;;;;;;13.70;12.23;;;11.80;29.40;;;;;;10446228;28;20232;-75
2021/03/07 16:36:22;;;;;;;13.90;12.40;;;11.80;29.50;;;;;;10452624;28;20257;-74
2021/03/07 16:41:25;;;;;;;13.97;12.67;;;11.80;29.50;;;;;;10453088;28;20232;-75
2021/03/07 16:46:27;;;;;;;13.33;12.03;;;11.90;29.60;;;;;;10451094;28;20590;-75
2021/03/07 16:51:29;;;;;;;13.50;12.20;;;11.90;29.60;;;;;;10448526;28;20229;-75
2021/03/07 16:56:33;;;;;;;14.57;13.17;;;11.90;29.60;;;;;;10450642;28;20278;-74
2021/03/07 17:01:35;;;;;;;13.37;12.07;;;11.90;29.30;;;;;;10451297;28;20255;-75
2021/03/07 17:06:38;;;;;;;12.93;11.63;;;11.80;29.30;;;;;;10441913;28;20303;-74
2021/03/07 17:11:41;;;;;;;13.10;11.80;;;11.70;29.10;;;;;;10451364;28;20252;-75
2021/03/07 17:16:43;;;;;;;13.20;11.90;;;11.60;29.00;;;;;;10446251;28;20603;-75
2021/03/07 17:21:46;;;;;;;13.90;12.50;;;11.50;29.00;;;;;;10434278;28;20235;-75
2021/03/07 17:26:49;;;;;;;12.87;11.60;;;11.30;29.20;;;;;;10451553;28;20785;-75
2021/03/07 17:31:51;;;;;;;12.87;11.67;;;11.20;29.10;;;;;;10450250;28;20225;-75
2021/03/07 17:36:54;;;;;;;13.27;12.00;;;11.10;29.10;;;;;;10442303;28;20233;-75
2021/03/07 17:41:58;;;;;;;15.27;13.77;;;10.90;28.90;;;;;;10431123;28;20252;-75
2021/03/07 17:47:00;;;;;;;18.53;16.67;;;10.90;28.90;;;;;;10448951;28;20228;-74
2021/03/07 17:52:04;;;;;;;17.80;16.00;;;10.80;28.90;;;;;;10448283;28;20316;-74
2021/03/07 17:57:08;;;;;;;17.00;15.30;;;10.60;28.70;;;;;;10448873;28;20259;-73
2021/03/07 18:02:10;;;;;;;13.33;11.00;;;10.50;28.90;;;;;;10447918;28;20225;-74
2021/03/07 18:07:13;;;;;;;13.63;12.27;;;10.40;29.00;;;;;;10447670;28;20509;-74
2021/03/07 18:12:16;;;;;;;16.50;13.90;;;10.30;28.90;;;;;;10444620;28;20283;-74
2021/03/07 18:17:18;;;;;;;11.87;10.67;;;10.20;28.90;;;;;;10442225;28;20234;-74
2021/03/07 18:22:21;;;;;;;12.70;11.47;;;10.20;28.90;;;;;;10442798;28;20320;-74
2021/03/07 18:27:24;;;;;;;18.03;16.33;;;10.10;28.90;;;;;;10453356;28;20229;-74
2021/03/07 18:32:26;;;;;;;18.10;16.40;;;10.00;28.80;;;;;;10446452;28;20240;-75
2021/03/07 18:37:31;;;;;;;15.90;14.40;;;9.90;29.60;;;;;;10438561;28;20284;-74
2021/03/07 18:42:34;;;;;;;16.00;14.40;;;9.70;29.50;;;;;;10444831;28;21810;-74
2021/03/07 18:47:37;;;;;;;18.57;16.57;;;9.60;29.50;;;;;;10440283;28;20232;-74
2021/03/07 18:52:40;;;;;;;31.27;25.07;;;9.40;29.40;;;;;;10442149;28;20240;-74
2021/03/07 18:57:46;;;;;;;22.00;19.57;;;9.20;29.30;;;;;;10442949;28;20231;-74
2021/03/07 19:02:49;;;;;;;17.70;14.60;;;8.90;29.40;;;;;;10443589;28;20221;-74
2021/03/07 19:07:59;;;;;;;18.47;16.67;;;8.60;29.50;;;;;;10449985;28;20766;-74
2021/03/07 19:13:03;;;;;;;70.07;52.73;;;8.50;29.90;;;;;;10437004;28;20227;-74
2021/03/07 19:18:06;;;;;;;32.17;25.67;;;8.40;30.00;;;;;;10446198;28;20229;-74
2021/03/07 19:23:13;;;;;;;20.03;17.23;;;8.20;30.00;;;;;;10446334;28;20224;-74
2021/03/07 19:28:52;;;;;;;19.03;17.07;;;8.20;30.00;;;;;;10475147;22;20223;-84
2021/03/07 19:34:39;;;;;;;23.30;20.03;;;8.10;30.30;;;;;;10427449;28;20224;-85
2021/03/07 19:45:58;;;;;;;15.40;13.80;;;7.90;30.40;;;;;;10431595;28;20305;-83
2021/03/07 19:51:00;;;;;;;20.50;18.57;;;7.80;30.60;;;;;;10425001;22;20759;-69
2021/03/07 19:56:03;;;;;;;18.90;17.07;;;7.70;30.20;;;;;;10460958;28;20222;-71
2021/03/07 20:01:06;;;;;;;22.80;19.30;;;7.60;30.20;;;;;;10472548;28;20236;-72
2021/03/07 20:06:09;;;;;;;25.53;22.40;;;7.50;30.30;;;;;;10458952;28;20335;-68
2021/03/07 20:11:15;;;;;;;22.60;20.17;;;7.30;30.20;;;;;;10464506;28;20711;-72
2021/03/07 20:16:18;;;;;;;20.40;18.20;;;7.20;30.40;;;;;;10442770;28;20236;-72
2021/03/07 20:21:20;;;;;;;19.90;17.77;;;7.10;30.50;;;;;;10458825;28;20220;-72
2021/03/07 20:26:23;;;;;;;19.23;17.13;;;7.00;30.40;;;;;;10455344;28;20778;-74
2021/03/07 20:31:43;;;;;;;17.80;15.50;;;6.80;30.50;;;;;;10460506;28;20695;-74
2021/03/07 20:36:45;;;;;;;22.60;19.47;;;6.70;30.60;;;;;;10450755;28;20713;-72
2021/03/07 20:41:47;;;;;;;18.90;16.93;;;6.70;30.70;;;;;;10464105;28;20304;-72
2021/03/07 20:46:51;;;;;;;18.50;16.57;;;6.60;30.80;;;;;;10463816;28;20221;-72
2021/03/07 20:51:53;;;;;;;20.20;17.10;;;6.50;30.90;;;;;;10465398;28;20235;-72
2021/03/07 20:56:55;;;;;;;21.30;18.70;;;6.40;30.90;;;;;;10452523;28;20739;-72
2021/03/07 21:01:59;;;;;;;20.30;17.60;;;6.30;31.10;;;;;;10460752;28;20228;-72
2021/03/07 21:07:02;;;;;;;22.90;20.37;;;6.20;31.40;;;;;;10457509;28;20705;-72
2021/03/07 21:12:05;;;;;;;21.00;17.60;;;6.10;31.30;;;;;;10464761;28;20233;-69
2021/03/07 21:17:08;;;;;;;16.90;14.93;;;6.10;31.50;;;;;;10469917;28;20229;-69
2021/03/07 21:22:11;;;;;;;17.73;14.90;;;6.10;31.60;;;;;;10454866;28;20709;-69
2021/03/07 21:27:13;;;;;;;17.63;15.27;;;6.00;31.50;;;;;;10455326;28;20313;-69
2021/03/07 21:32:17;;;;;;;15.03;13.30;;;6.00;31.60;;;;;;10462734;28;20259;-69
2021/03/07 21:37:19;;;;;;;22.53;19.10;;;6.00;31.50;;;;;;10462308;28;20287;-69
2021/03/07 21:42:21;;;;;;;23.20;18.37;;;6.00;31.60;;;;;;10462953;28;20346;-69
2021/03/07 21:47:24;;;;;;;18.50;15.17;;;6.10;31.60;;;;;;10451955;28;20308;-69
2021/03/07 21:52:27;;;;;;;15.33;13.73;;;6.00;31.60;;;;;;10462763;28;20240;-69
2021/03/07 21:57:29;;;;;;;18.40;14.20;;;6.00;31.40;;;;;;10460353;28;20225;-69
2021/03/07 22:02:32;;;;;;;19.87;14.83;;;6.00;31.30;;;;;;10467623;28;20223;-71
2021/03/07 22:07:35;;;;;;;27.37;20.90;;;5.90;31.00;;;;;;10471157;28;20274;-72
2021/03/07 22:12:37;;;;;;;20.30;15.77;;;5.70;31.10;;;;;;10469979;28;20229;-74
2021/03/07 22:17:40;;;;;;;16.67;14.90;;;5.60;31.20;;;;;;10467506;28;20593;-74
2021/03/07 22:22:43;;;;;;;21.20;17.20;;;5.50;31.70;;;;;;10469047;28;20255;-74
2021/03/07 22:27:45;;;;;;;20.30;16.27;;;5.40;31.20;;;;;;10466563;28;20307;-68
2021/03/07 22:32:48;;;;;;;17.43;14.97;;;5.20;31.60;;;;;;10465982;28;20316;-71
2021/03/07 22:37:50;;;;;;;14.50;13.00;;;5.10;31.70;;;;;;10456402;28;20770;-68
2021/03/07 22:42:53;;;;;;;16.67;15.00;;;5.10;31.70;;;;;;10456489;28;20230;-71
2021/03/07 22:47:56;;;;;;;16.37;14.57;;;5.00;31.90;;;;;;10467315;28;20235;-71
2021/03/07 22:52:59;;;;;;;18.23;13.87;;;5.00;32.20;;;;;;10472558;28;20226;-68
2021/03/07 22:58:01;;;;;;;13.57;12.17;;;5.00;32.10;;;;;;10475329;28;20228;-68
2021/03/07 23:03:04;;;;;;;13.43;12.03;;;5.10;32.00;;;;;;10477249;28;20246;-68
2021/03/07 23:08:07;;;;;;;10.03;9.03;;;5.10;32.10;;;;;;10475733;28;20239;-67
2021/03/07 23:13:09;;;;;;;15.03;13.10;;;5.10;31.80;;;;;;10466212;28;20730;-68
2021/03/07 23:18:12;;;;;;;25.20;20.53;;;5.20;31.90;;;;;;10460149;28;20229;-73
2021/03/07 23:23:14;;;;;;;24.20;18.73;;;5.20;31.90;;;;;;10455119;28;20631;-73
2021/03/07 23:28:17;;;;;;;16.90;14.83;;;5.20;31.90;;;;;;10471136;28;20258;-73
2021/03/07 23:33:20;;;;;;;17.73;15.43;;;5.10;31.60;;;;;;10462563;28;20236;-73
2021/03/07 23:38:22;;;;;;;17.77;15.67;;;5.00;31.60;;;;;;10459010;28;20233;-73
2021/03/07 23:43:24;;;;;;;14.53;13.03;;;4.80;31.60;;;;;;10466014;28;20722;-73
2021/03/07 23:48:27;;;;;;;14.53;13.03;;;4.70;31.70;;;;;;10457799;28;20234;-73
2021/03/07 23:53:30;;;;;;;15.40;13.67;;;4.70;32.10;;;;;;10457104;28;20286;-71
2021/03/07 23:58:32;;;;;;;15.07;13.53;;;4.70;31.80;;;;;;10452807;28;20229;-71
